createdAt,value
2023-01-03T00:00:03.511Z,22.36
2023-01-03T00:02:31.307Z,22.36
2023-01-03T00:05:00.503Z,22.37
2023-01-03T00:07:37.363Z,22.37
2023-01-03T00:10:05.818Z,22.35
2023-01-03T00:12:32.444Z,22.36
2023-01-03T00:15:00.136Z,22.36
2023-01-03T00:17:27.811Z,22.35
2023-01-03T00:19:55.435Z,22.36
2023-01-03T00:22:24.513Z,22.35
2023-01-03T00:24:53.073Z,22.35
2023-01-03T00:27:20.717Z,22.35
2023-01-03T00:29:48.320Z,22.34
2023-01-03T00:32:16.029Z,22.33
2023-01-03T00:34:44.342Z,22.34
2023-01-03T00:37:12.021Z,22.33
2023-01-03T00:39:41.020Z,22.33
2023-01-03T00:42:08.739Z,22.33
2023-01-03T00:44:36.381Z,22.33
2023-01-03T00:47:04.028Z,22.34
2023-01-03T00:49:31.690Z,22.34
2023-01-03T00:51:59.489Z,22.33
2023-01-03T00:54:27.200Z,22.33
2023-01-03T00:56:56.184Z,22.32
2023-01-03T00:59:23.855Z,22.33
2023-01-03T01:01:52.137Z,22.34
2023-01-03T01:04:20.351Z,22.34
2023-01-03T01:06:48.382Z,22.33
2023-01-03T01:09:16.846Z,22.32
2023-01-03T01:11:44.909Z,22.33
2023-01-03T01:14:23.130Z,22.33
2023-01-03T01:16:51.429Z,22.32
2023-01-03T01:19:19.204Z,22.32
2023-01-03T01:21:46.860Z,22.31
2023-01-03T01:24:18.036Z,22.33
2023-01-03T01:26:46.154Z,22.32
2023-01-03T01:29:15.429Z,22.32
2023-01-03T01:31:43.142Z,22.30
2023-01-03T01:34:10.829Z,22.31
2023-01-03T01:36:39.567Z,22.31
2023-01-03T01:39:08.745Z,22.31
2023-01-03T01:41:54.136Z,22.31
2023-01-03T01:44:40.410Z,22.31
2023-01-03T01:47:09.953Z,22.32
2023-01-03T01:49:37.637Z,22.32
2023-01-03T01:52:05.351Z,22.31
2023-01-03T01:54:33.018Z,22.31
2023-01-03T01:57:00.889Z,22.31
2023-01-03T01:59:28.831Z,22.32
2023-01-03T02:01:56.558Z,22.31
2023-01-03T02:04:26.045Z,22.32
2023-01-03T02:06:53.652Z,22.31
2023-01-03T02:09:21.236Z,22.32
2023-01-03T02:12:12.444Z,22.30
2023-01-03T02:14:43.357Z,22.31
2023-01-03T02:17:11.932Z,22.31
2023-01-03T02:19:50.209Z,22.32
2023-01-03T02:22:33.805Z,22.32
2023-01-03T02:25:14.077Z,22.32
2023-01-03T02:27:51.701Z,22.32
2023-01-03T02:30:30.369Z,22.31
2023-01-03T02:32:59.539Z,22.32
2023-01-03T02:35:29.035Z,22.32
2023-01-03T02:37:58.353Z,22.32
2023-01-03T02:40:26.722Z,22.32
2023-01-03T02:43:02.259Z,22.32
2023-01-03T02:45:35.946Z,22.31
2023-01-03T02:48:04.611Z,22.32
2023-01-03T02:50:32.737Z,22.31
2023-01-03T02:53:02.861Z,22.30
2023-01-03T02:55:31.251Z,22.31
2023-01-03T02:57:59.945Z,22.30
2023-01-03T03:00:27.924Z,22.31
2023-01-03T03:02:58.449Z,22.31
2023-01-03T03:05:26.844Z,22.30
2023-01-03T03:07:54.499Z,22.29
2023-01-03T03:10:39.527Z,22.31
2023-01-03T03:13:14.327Z,22.31
2023-01-03T03:15:43.572Z,22.31
2023-01-03T03:18:13.135Z,22.31
2023-01-03T03:20:58.150Z,22.31
2023-01-03T03:23:44.273Z,22.30
2023-01-03T03:26:12.319Z,22.32
2023-01-03T03:28:39.525Z,22.31
2023-01-03T03:31:08.096Z,22.31
2023-01-03T03:33:37.801Z,22.32
2023-01-03T03:36:06.173Z,22.31
2023-01-03T03:38:34.774Z,22.31
2023-01-03T03:41:22.708Z,22.31
2023-01-03T03:44:10.447Z,22.29
2023-01-03T03:46:39.351Z,22.30
2023-01-03T03:49:26.651Z,22.30
2023-01-03T03:51:55.257Z,22.30
2023-01-03T03:54:22.925Z,22.30
2023-01-03T03:56:51.318Z,22.29
2023-01-03T03:59:18.944Z,22.29
2023-01-03T04:01:46.785Z,22.29
2023-01-03T04:04:16.614Z,22.29
2023-01-03T04:06:44.617Z,22.29
2023-01-03T04:09:12.303Z,22.27
2023-01-03T04:11:40.035Z,22.28
2023-01-03T04:14:07.931Z,22.27
2023-01-03T04:16:37.744Z,22.29
2023-01-03T04:19:05.685Z,22.28
2023-01-03T04:21:36.547Z,22.30
2023-01-03T04:24:04.494Z,22.29
2023-01-03T04:26:32.135Z,22.29
2023-01-03T04:28:59.793Z,22.28
2023-01-03T04:31:27.489Z,22.30
2023-01-03T04:33:55.186Z,22.29
2023-01-03T04:36:22.824Z,22.29
2023-01-03T04:38:51.888Z,22.28
2023-01-03T04:41:19.737Z,22.29
2023-01-03T04:44:04.938Z,22.29
2023-01-03T04:46:33.231Z,22.28
2023-01-03T04:49:00.906Z,22.27
2023-01-03T04:51:28.642Z,22.28
2023-01-03T04:53:57.845Z,22.25
2023-01-03T04:56:26.155Z,22.26
2023-01-03T04:58:53.807Z,22.25
2023-01-03T05:01:21.523Z,22.25
2023-01-03T05:03:49.333Z,22.25
2023-01-03T05:06:17.013Z,22.24
2023-01-03T05:08:45.449Z,22.24
2023-01-03T05:11:14.722Z,22.25
2023-01-03T05:13:42.469Z,22.24
2023-01-03T05:16:10.866Z,22.23
2023-01-03T05:18:38.629Z,22.24
2023-01-03T05:21:24.702Z,22.24
2023-01-03T05:24:09.673Z,22.24
2023-01-03T05:26:39.605Z,22.25
2023-01-03T05:29:07.253Z,22.25
2023-01-03T05:31:34.952Z,22.25
2023-01-03T05:34:02.751Z,22.25
2023-01-03T05:36:30.353Z,22.26
2023-01-03T05:38:57.944Z,22.25
2023-01-03T05:41:42.739Z,22.27
2023-01-03T05:44:11.866Z,22.26
2023-01-03T05:46:39.515Z,22.26
2023-01-03T05:49:07.216Z,22.25
2023-01-03T05:51:34.853Z,22.24
2023-01-03T05:54:02.524Z,22.25
2023-01-03T05:56:31.308Z,22.23
2023-01-03T05:58:58.959Z,22.24
2023-01-03T06:01:28.612Z,22.24
2023-01-03T06:03:57.467Z,22.23
2023-01-03T06:06:25.119Z,22.24
2023-01-03T06:08:53.562Z,22.24
2023-01-03T06:11:21.245Z,22.24
2023-01-03T06:13:51.052Z,22.25
2023-01-03T06:16:36.213Z,22.25
2023-01-03T06:19:05.656Z,22.25
2023-01-03T06:21:33.371Z,22.27
2023-01-03T06:24:01.051Z,22.26
2023-01-03T06:26:28.666Z,22.27
2023-01-03T06:28:56.311Z,22.27
2023-01-03T06:31:24.130Z,22.28
2023-01-03T06:33:51.844Z,22.27
2023-01-03T06:36:21.679Z,22.27
2023-01-03T06:38:49.318Z,22.29
2023-01-03T06:41:17.038Z,22.29
2023-01-03T06:43:44.702Z,22.28
2023-01-03T06:46:29.909Z,22.30
2023-01-03T06:49:14.956Z,22.31
2023-01-03T06:52:01.626Z,22.30
2023-01-03T06:54:30.664Z,22.31
2023-01-03T06:56:58.313Z,22.31
2023-01-03T06:59:25.993Z,22.31
2023-01-03T07:01:53.890Z,22.31
2023-01-03T07:04:21.953Z,22.31
2023-01-03T07:06:51.080Z,22.31
2023-01-03T07:09:18.824Z,22.32
2023-01-03T07:11:46.482Z,22.31
2023-01-03T07:14:13.254Z,22.31
2023-01-03T07:16:41.444Z,22.31
2023-01-03T07:19:09.534Z,22.32
2023-01-03T07:21:37.412Z,22.31
2023-01-03T07:24:06.667Z,22.32
2023-01-03T07:26:34.418Z,22.32
2023-01-03T07:29:04.471Z,22.32
2023-01-03T07:31:32.933Z,22.34
2023-01-03T07:34:00.863Z,22.36
2023-01-03T07:36:28.536Z,22.36
2023-01-03T07:38:56.550Z,22.38
2023-01-03T07:41:46.470Z,22.40
2023-01-03T07:44:13.063Z,22.42
2023-01-03T07:46:41.844Z,22.43
2023-01-03T07:49:11.887Z,22.43
2023-01-03T07:51:39.936Z,22.45
2023-01-03T07:54:08.021Z,22.45
2023-01-03T07:56:37.245Z,22.47
2023-01-03T07:59:04.913Z,22.47
2023-01-03T08:01:33.615Z,22.49
2023-01-03T08:04:01.343Z,22.48
2023-01-03T08:06:29.795Z,22.51
2023-01-03T08:09:15.053Z,22.52
2023-01-03T08:12:01.653Z,22.52
2023-01-03T08:14:29.274Z,22.52
2023-01-03T08:16:57.266Z,22.55
2023-01-03T08:19:24.882Z,22.56
2023-01-03T08:21:52.563Z,22.58
2023-01-03T08:24:20.431Z,22.60
2023-01-03T08:26:49.569Z,22.63
2023-01-03T08:29:17.763Z,22.64
2023-01-03T08:31:45.813Z,22.65
2023-01-03T08:34:18.503Z,22.66
2023-01-03T08:36:48.914Z,22.67
2023-01-03T08:39:17.193Z,22.68
2023-01-03T08:41:45.852Z,22.69
2023-01-03T08:44:14.829Z,22.71
2023-01-03T08:46:43.900Z,22.73
2023-01-03T08:49:11.566Z,22.75
2023-01-03T08:51:40.389Z,22.77
2023-01-03T08:54:08.111Z,22.77
2023-01-03T08:56:38.706Z,22.78
2023-01-03T08:59:07.049Z,22.78
2023-01-03T09:01:36.250Z,22.79
2023-01-03T09:04:06.112Z,22.78
2023-01-03T09:06:34.138Z,22.80
2023-01-03T09:09:05.454Z,22.81
2023-01-03T09:11:33.132Z,22.81
2023-01-03T09:14:01.094Z,22.83
2023-01-03T09:16:29.920Z,22.85
2023-01-03T09:19:00.097Z,22.85
2023-01-03T09:21:29.845Z,22.86
2023-01-03T09:23:58.659Z,22.87
2023-01-03T09:26:26.307Z,22.88
2023-01-03T09:28:54.667Z,22.89
2023-01-03T09:31:22.435Z,22.89
2023-01-03T09:33:50.880Z,22.92
2023-01-03T09:36:19.921Z,22.94
2023-01-03T09:38:47.569Z,22.95
2023-01-03T09:41:18.759Z,22.98
2023-01-03T09:43:46.991Z,23.00
2023-01-03T09:46:17.475Z,23.02
2023-01-03T09:48:45.148Z,23.04
2023-01-03T09:51:31.509Z,23.04
2023-01-03T09:54:18.212Z,23.03
2023-01-03T09:57:03.791Z,23.08
2023-01-03T09:59:51.009Z,23.10
2023-01-03T10:02:41.600Z,23.11
2023-01-03T10:05:18.768Z,23.12
2023-01-03T10:07:51.422Z,23.15
2023-01-03T10:10:21.948Z,23.16
2023-01-03T10:12:54.414Z,23.18
2023-01-03T10:15:24.230Z,23.21
2023-01-03T10:17:56.447Z,23.24
2023-01-03T10:20:27.998Z,23.26
2023-01-03T10:23:02.859Z,23.27
2023-01-03T10:25:31.829Z,23.31
2023-01-03T10:28:01.361Z,23.34
2023-01-03T10:30:33.609Z,23.37
2023-01-03T10:33:05.253Z,23.41
2023-01-03T10:35:33.864Z,23.45
2023-01-03T10:38:01.503Z,23.50
2023-01-03T10:40:35.448Z,23.54
2023-01-03T10:43:14.249Z,23.59
2023-01-03T10:45:55.497Z,23.62
2023-01-03T10:48:23.235Z,23.66
2023-01-03T10:50:52.314Z,23.69
2023-01-03T10:53:21.448Z,23.73
2023-01-03T10:55:51.622Z,23.75
2023-01-03T10:58:28.014Z,23.78
2023-01-03T11:01:11.582Z,23.80
2023-01-03T11:03:51.130Z,23.83
2023-01-03T11:06:19.846Z,23.84
2023-01-03T11:08:47.823Z,23.87
2023-01-03T11:11:29.576Z,23.87
2023-01-03T11:14:06.327Z,23.89
2023-01-03T11:16:34.835Z,23.91
2023-01-03T11:19:03.044Z,23.94
2023-01-03T11:21:32.168Z,23.96
2023-01-03T11:24:03.448Z,23.96
2023-01-03T11:26:38.077Z,23.98
2023-01-03T11:29:12.437Z,24.01
2023-01-03T11:31:43.479Z,24.01
2023-01-03T11:34:17.374Z,24.02
2023-01-03T11:36:48.934Z,24.05
2023-01-03T11:39:26.791Z,24.03
2023-01-03T11:42:00.095Z,24.02
2023-01-03T11:44:45.610Z,24.01
2023-01-03T11:47:17.083Z,24.02
2023-01-03T11:49:47.704Z,24.01
2023-01-03T11:52:19.971Z,24.01
2023-01-03T11:54:56.630Z,24.01
2023-01-03T11:57:28.647Z,23.99
2023-01-03T12:00:00.319Z,24.00
2023-01-03T12:02:36.262Z,24.00
2023-01-03T12:05:07.841Z,23.99
2023-01-03T12:07:48.171Z,23.97
2023-01-03T12:10:17.183Z,23.98
2023-01-03T12:13:04.109Z,23.98
2023-01-03T12:15:34.746Z,23.95
2023-01-03T12:18:05.245Z,23.95
2023-01-03T12:20:33.348Z,23.93
2023-01-03T12:23:02.120Z,23.92
2023-01-03T12:25:31.754Z,23.91
2023-01-03T12:28:02.178Z,23.89
2023-01-03T12:30:33.284Z,23.89
2023-01-03T12:33:03.322Z,23.87
2023-01-03T12:35:32.658Z,23.87
2023-01-03T12:38:00.408Z,23.87
2023-01-03T12:40:30.718Z,23.86
2023-01-03T12:43:00.440Z,23.85
2023-01-03T12:45:34.603Z,23.84
2023-01-03T12:48:06.223Z,23.82
2023-01-03T12:50:35.049Z,23.81
2023-01-03T12:53:03.716Z,23.80
2023-01-03T12:55:33.276Z,23.79
2023-01-03T12:58:09.388Z,23.77
2023-01-03T13:01:04.129Z,23.74
2023-01-03T13:03:36.090Z,23.72
2023-01-03T13:06:04.340Z,23.69
2023-01-03T13:08:35.123Z,23.67
2023-01-03T13:11:04.202Z,23.65
2023-01-03T13:13:32.530Z,23.64
2023-01-03T13:16:00.262Z,23.63
2023-01-03T13:18:37.312Z,23.62
2023-01-03T13:21:32.032Z,23.61
2023-01-03T13:24:00.578Z,23.62
2023-01-03T13:26:28.817Z,23.63
2023-01-03T13:29:12.038Z,23.62
2023-01-03T13:31:40.429Z,23.61
2023-01-03T13:34:13.857Z,23.62
2023-01-03T13:37:00.002Z,23.62
2023-01-03T13:39:38.298Z,23.61
2023-01-03T13:42:06.006Z,23.61
2023-01-03T13:44:34.480Z,23.61
2023-01-03T13:47:02.245Z,23.62
2023-01-03T13:49:32.146Z,23.62
2023-01-03T13:51:59.948Z,23.61
2023-01-03T13:54:38.386Z,23.61
2023-01-03T13:57:07.625Z,23.60
2023-01-03T13:59:37.231Z,23.58
2023-01-03T14:02:15.796Z,23.57
2023-01-03T14:04:56.056Z,23.56
2023-01-03T14:07:34.183Z,23.55
2023-01-03T14:10:07.460Z,23.53
2023-01-03T14:12:38.805Z,23.52
2023-01-03T14:15:19.832Z,23.50
2023-01-03T14:17:53.997Z,23.48
2023-01-03T14:20:23.989Z,23.46
2023-01-03T14:22:51.969Z,23.45
2023-01-03T14:25:32.824Z,23.43
2023-01-03T14:28:01.293Z,23.41
2023-01-03T14:30:29.755Z,23.41
2023-01-03T14:32:58.139Z,23.39
2023-01-03T14:35:33.896Z,23.39
2023-01-03T14:38:06.697Z,23.37
2023-01-03T14:40:35.028Z,23.36
2023-01-03T14:43:05.223Z,23.35
2023-01-03T14:45:32.936Z,23.34
2023-01-03T14:48:02.164Z,23.33
2023-01-03T14:50:30.370Z,23.30
2023-01-03T14:53:00.984Z,23.29
2023-01-03T14:55:29.387Z,23.27
2023-01-03T14:57:58.573Z,23.27
2023-01-03T15:00:32.609Z,23.24
2023-01-03T15:03:01.703Z,23.21
2023-01-03T15:05:30.385Z,23.21
2023-01-03T15:08:12.023Z,23.19
2023-01-03T15:10:42.773Z,23.17
2023-01-03T15:13:15.141Z,23.15
2023-01-03T15:15:42.879Z,23.13
2023-01-03T15:18:14.693Z,23.10
2023-01-03T15:20:46.425Z,23.08
2023-01-03T15:23:23.074Z,23.06
2023-01-03T15:25:52.187Z,23.03
2023-01-03T15:28:25.850Z,23.02
2023-01-03T15:30:53.858Z,23.00
2023-01-03T15:33:23.151Z,22.98
2023-01-03T15:35:51.142Z,22.98
2023-01-03T15:38:22.171Z,22.94
2023-01-03T15:40:50.383Z,22.94
2023-01-03T15:43:22.407Z,22.94
2023-01-03T15:45:51.808Z,22.94
2023-01-03T15:48:20.309Z,22.93
2023-01-03T15:50:49.360Z,22.95
2023-01-03T15:53:28.169Z,22.95
2023-01-03T15:56:01.060Z,22.94
2023-01-03T15:58:29.642Z,22.95
2023-01-03T16:00:58.090Z,22.94
2023-01-03T16:03:25.984Z,22.94
2023-01-03T16:05:54.429Z,22.94
2023-01-03T16:08:25.006Z,22.93
2023-01-03T16:10:54.788Z,22.93
2023-01-03T16:13:23.330Z,22.91
2023-01-03T16:15:51.900Z,22.92
2023-01-03T16:18:21.606Z,22.89
2023-01-03T16:20:49.969Z,22.90
2023-01-03T16:23:22.335Z,22.89
2023-01-03T16:25:52.246Z,22.89
2023-01-03T16:28:21.304Z,22.88
2023-01-03T16:30:50.131Z,22.88
2023-01-03T16:33:18.874Z,22.87
2023-01-03T16:35:47.296Z,22.87
2023-01-03T16:38:15.528Z,22.88
2023-01-03T16:40:44.727Z,22.88
2023-01-03T16:43:12.426Z,22.87
2023-01-03T16:45:47.337Z,22.87
2023-01-03T16:48:16.521Z,22.87
2023-01-03T16:50:46.113Z,22.87
2023-01-03T16:53:19.085Z,22.87
2023-01-03T16:55:48.127Z,22.87
2023-01-03T16:58:17.690Z,22.88
2023-01-03T17:00:47.575Z,22.88
2023-01-03T17:03:15.409Z,22.88
2023-01-03T17:05:44.311Z,22.89
2023-01-03T17:08:16.173Z,22.89
2023-01-03T17:10:47.009Z,22.88
2023-01-03T17:13:20.711Z,22.89
2023-01-03T17:15:50.586Z,22.88
2023-01-03T17:18:18.781Z,22.89
2023-01-03T17:20:46.420Z,22.89
2023-01-03T17:23:16.172Z,22.88
2023-01-03T17:25:43.848Z,22.88
2023-01-03T17:28:12.211Z,22.87
2023-01-03T17:30:39.971Z,22.87
2023-01-03T17:33:11.165Z,22.86
2023-01-03T17:35:38.903Z,22.87
2023-01-03T17:38:26.808Z,22.87
2023-01-03T17:40:55.353Z,22.87
2023-01-03T17:43:24.332Z,22.87
2023-01-03T17:46:14.889Z,22.87
2023-01-03T17:49:06.176Z,22.87
2023-01-03T17:51:33.890Z,22.87
2023-01-03T17:54:03.218Z,22.86
2023-01-03T17:56:36.407Z,22.86
2023-01-03T17:59:05.605Z,22.87
2023-01-03T18:01:34.126Z,22.86
2023-01-03T18:04:09.478Z,22.87
2023-01-03T18:06:38.442Z,22.88
2023-01-03T18:09:06.558Z,22.88
2023-01-03T18:11:35.077Z,22.88
2023-01-03T18:14:02.756Z,22.89
2023-01-03T18:16:35.299Z,22.89
2023-01-03T18:19:04.352Z,22.89
2023-01-03T18:21:33.947Z,22.89
2023-01-03T18:24:02.268Z,22.89
2023-01-03T18:26:32.713Z,22.88
2023-01-03T18:29:00.419Z,22.89
2023-01-03T18:31:30.340Z,22.89
2023-01-03T18:33:59.716Z,22.89
2023-01-03T18:36:29.012Z,22.89
2023-01-03T18:39:00.389Z,22.89
2023-01-03T18:41:28.665Z,22.90
2023-01-03T18:43:56.336Z,22.88
2023-01-03T18:46:27.407Z,22.90
2023-01-03T18:48:55.128Z,22.89
2023-01-03T18:51:25.329Z,22.89
2023-01-03T18:53:55.288Z,22.88
2023-01-03T18:56:30.998Z,22.89
2023-01-03T18:59:02.423Z,22.89
2023-01-03T19:01:30.389Z,22.89
2023-01-03T19:03:59.546Z,22.90
2023-01-03T19:06:30.556Z,22.89
2023-01-03T19:09:03.302Z,22.89
2023-01-03T19:11:31.559Z,22.90
2023-01-03T19:14:03.289Z,22.89
2023-01-03T19:16:31.371Z,22.90
2023-01-03T19:18:59.121Z,22.92
2023-01-03T19:21:28.254Z,22.92
2023-01-03T19:23:58.663Z,22.92
2023-01-03T19:26:31.309Z,22.92
2023-01-03T19:29:00.230Z,22.92
2023-01-03T19:31:30.044Z,22.93
2023-01-03T19:33:57.742Z,22.93
2023-01-03T19:36:25.394Z,22.93
2023-01-03T19:38:53.946Z,22.93
2023-01-03T19:41:21.960Z,22.93
2023-01-03T19:43:52.411Z,22.93
2023-01-03T19:46:20.346Z,22.93
2023-01-03T19:48:48.062Z,22.92
2023-01-03T19:51:17.460Z,22.92
2023-01-03T19:53:45.181Z,22.92
2023-01-03T19:56:21.709Z,22.92
2023-01-03T19:58:50.179Z,22.92
2023-01-03T20:01:21.052Z,22.92
2023-01-03T20:03:49.061Z,22.91
2023-01-03T20:06:18.673Z,22.91
2023-01-03T20:08:46.347Z,22.92
2023-01-03T20:11:18.835Z,22.91
2023-01-03T20:13:47.213Z,22.91
2023-01-03T20:16:15.025Z,22.90
2023-01-03T20:18:45.300Z,22.90
2023-01-03T20:21:21.408Z,22.90
2023-01-03T20:23:51.328Z,22.90
2023-01-03T20:26:20.800Z,22.91
2023-01-03T20:28:50.426Z,22.91
2023-01-03T20:31:20.546Z,22.91
2023-01-03T20:33:51.467Z,22.91
2023-01-03T20:36:23.168Z,22.93
2023-01-03T20:38:53.381Z,22.93
2023-01-03T20:41:21.112Z,22.92
2023-01-03T20:43:50.221Z,22.93
2023-01-03T20:46:20.737Z,22.92
2023-01-03T20:48:51.545Z,22.93
2023-01-03T20:51:37.583Z,22.93
2023-01-03T20:54:05.355Z,22.92
2023-01-03T20:56:35.456Z,22.92
2023-01-03T20:59:03.907Z,22.91
2023-01-03T21:01:33.019Z,22.90
2023-01-03T21:04:02.971Z,22.90
2023-01-03T21:06:43.006Z,22.90
2023-01-03T21:09:16.449Z,22.89
2023-01-03T21:11:44.113Z,22.89
2023-01-03T21:14:13.526Z,22.89
2023-01-03T21:16:42.145Z,22.89
2023-01-03T21:19:13.605Z,22.88
2023-01-03T21:21:41.301Z,22.88
2023-01-03T21:24:09.148Z,22.88
2023-01-03T21:26:37.658Z,22.88
2023-01-03T21:29:05.467Z,22.89
2023-01-03T21:31:34.071Z,22.87
2023-01-03T21:34:02.149Z,22.88
2023-01-03T21:36:32.675Z,22.88
2023-01-03T21:39:01.538Z,22.88
2023-01-03T21:43:58.269Z,22.87
2023-01-03T21:46:26.313Z,22.88
2023-01-03T21:48:58.455Z,22.88
2023-01-03T21:51:41.607Z,22.88
2023-01-03T21:54:11.513Z,22.88
2023-01-03T21:56:46.716Z,22.87
2023-01-03T21:59:15.625Z,22.85
2023-01-03T22:02:12.344Z,22.86
2023-01-03T22:04:40.973Z,22.85
2023-01-03T22:07:08.611Z,22.85
2023-01-03T22:09:55.883Z,22.83
2023-01-03T22:12:23.499Z,22.82
2023-01-03T22:14:51.229Z,22.82
2023-01-03T22:17:19.715Z,22.81
2023-01-03T22:19:47.443Z,22.81
2023-01-03T22:22:15.981Z,22.81
2023-01-03T22:24:44.994Z,22.80
2023-01-03T22:27:12.942Z,22.80
2023-01-03T22:29:41.369Z,22.80
2023-01-03T22:32:10.459Z,22.79
2023-01-03T22:34:39.532Z,22.78
2023-01-03T22:37:07.141Z,22.79
2023-01-03T22:39:34.890Z,22.78
2023-01-03T22:42:04.718Z,22.79
2023-01-03T22:44:32.384Z,22.78
2023-01-03T22:47:00.849Z,22.78
2023-01-03T22:49:28.593Z,22.79
2023-01-03T22:51:56.276Z,22.78
2023-01-03T22:56:56.775Z,22.78
2023-01-03T22:59:27.411Z,22.77
2023-01-03T23:01:55.219Z,22.78
2023-01-03T23:04:24.341Z,22.77
2023-01-03T23:06:52.777Z,22.77
2023-01-03T23:09:20.509Z,22.76
2023-01-03T23:12:06.447Z,22.76
2023-01-03T23:14:35.561Z,22.76
2023-01-03T23:17:24.767Z,22.75
2023-01-03T23:19:52.392Z,22.74
2023-01-03T23:22:20.031Z,22.75
2023-01-03T23:24:48.492Z,22.74
2023-01-03T23:27:16.237Z,22.75
2023-01-03T23:29:46.000Z,22.73
2023-01-03T23:32:13.642Z,22.72
2023-01-03T23:34:41.808Z,22.74
2023-01-03T23:37:09.499Z,22.72
2023-01-03T23:39:37.134Z,22.72
2023-01-03T23:42:05.126Z,22.73
2023-01-03T23:44:33.348Z,22.72
2023-01-03T23:47:07.685Z,22.72
2023-01-03T23:49:38.863Z,22.72
2023-01-03T23:52:06.554Z,22.72
2023-01-03T23:54:34.260Z,22.72
2023-01-03T23:57:02.059Z,22.72
2023-01-03T23:59:29.996Z,22.72
